KEDE/EDE METAR and TAF weather

Enter ICAO airport designator
Station Type Date Time Source
KEDE METAR 2023/01/30 11:35 UTC NOAA

KEDE 301135Z AUTO 04003KT 5SM -RA OVC004 11/11 A3020 RMK AO2 P0015 T01100110


Station Type Date Time Source
KEDE Decoded METAR 2023/01/30 11:35 UTC NOAA

Edenton, Northeastern Regional Airport, NC, United States (KEDE) 36-01-40N 076-34-02W
Jan 30, 2023 - 06:35 AM EST / 2023.01.30 1135 UTC
Wind: from the NE (040 degrees) at 3 MPH (3 KT):0
Visibility: 5 mile(s):0
Sky conditions: overcast
Weather: light rain
Precipitation last hour: 0.15 inches
Temperature: 51.8 F (11.0 C)
Dew Point: 51.8 F (11.0 C)
Relative Humidity: 100%
Pressure (altimeter): 30.2 in. Hg (1022 hPa)
ob: KEDE 301135Z AUTO 04003KT 5SM -RA OVC004 11/11 A3020 RMK AO2 P0015 T01100110
cycle: 11

Station Type Date Time Source
KEDE TAF UTC NOAA

Error!

Example: see airport list